Time;durP1;ratioP1;P1;durP2;ratioP2;P2;SDS_P1;SDS_P2;PMS_P1;PMS_P2;Temp;Humidity;BMP_temperature;BMP_pressure;BME280_temperature;BME280_humidity;BME280_pressure;Samples;Min_cycle;Max_cycle;Signal;HPM_P1;HPM_P2
2023/09/20 00:00:40;;;;;;;5.80;2.10;;;16.30;99.90;;;;;;4990204;28;20890;-53
2023/09/20 00:03:08;;;;;;;4.53;2.40;;;16.20;99.90;;;;;;4992491;28;20499;-53
2023/09/20 00:05:39;;;;;;;4.77;2.10;;;16.20;99.90;;;;;;4989956;28;20938;-54
2023/09/20 00:08:06;;;;;;;5.53;2.90;;;16.20;99.90;;;;;;4991965;28;20449;-58
2023/09/20 00:10:32;;;;;;;7.80;2.70;;;16.20;99.90;;;;;;4991697;28;20902;-56
2023/09/20 00:12:59;;;;;;;4.13;2.47;;;16.10;99.90;;;;;;4990189;28;20457;-54
2023/09/20 00:15:25;;;;;;;5.10;2.60;;;16.10;99.90;;;;;;4990296;28;20453;-58
2023/09/20 00:17:54;;;;;;;8.93;2.77;;;16.10;99.90;;;;;;4991576;28;20487;-54
2023/09/20 00:20:20;;;;;;;5.60;2.63;;;16.10;99.90;;;;;;4989151;28;20547;-57
2023/09/20 00:22:50;;;;;;;12.73;3.67;;;16.00;99.90;;;;;;4992008;28;20521;-52
2023/09/20 00:25:17;;;;;;;6.27;2.93;;;16.10;99.90;;;;;;4991101;28;20951;-52
2023/09/20 00:27:45;;;;;;;13.87;2.67;;;16.00;99.90;;;;;;4988239;28;20465;-52
2023/09/20 00:30:14;;;;;;;12.50;2.90;;;16.00;99.90;;;;;;4986527;28;21017;-53
2023/09/20 00:32:41;;;;;;;6.07;2.30;;;16.00;99.90;;;;;;4991268;28;20871;-54
2023/09/20 00:35:10;;;;;;;6.13;2.67;;;15.90;99.90;;;;;;4991961;28;20519;-53
2023/09/20 00:37:37;;;;;;;4.13;2.20;;;15.90;99.90;;;;;;4985763;28;20487;-55
2023/09/20 00:40:13;;;;;;;6.30;2.40;;;15.90;99.90;;;;;;4988197;28;20488;-53
2023/09/20 00:42:40;;;;;;;6.07;2.93;;;15.90;99.90;;;;;;4990594;28;21061;-54
2023/09/20 00:45:07;;;;;;;5.53;2.43;;;15.80;99.90;;;;;;4988420;28;21036;-55
2023/09/20 00:47:34;;;;;;;8.97;3.00;;;15.90;99.90;;;;;;4991325;28;20452;-54
2023/09/20 00:50:01;;;;;;;10.53;2.93;;;15.90;99.90;;;;;;4983031;28;20476;-53
2023/09/20 00:52:28;;;;;;;8.43;2.70;;;15.80;99.90;;;;;;4990855;28;20511;-54
2023/09/20 00:54:57;;;;;;;6.30;2.50;;;15.80;99.90;;;;;;4990084;28;20456;-53
2023/09/20 00:57:27;;;;;;;10.90;2.63;;;15.80;99.90;;;;;;4988539;28;20471;-53
2023/09/20 00:59:55;;;;;;;4.50;2.80;;;15.80;99.90;;;;;;4989384;28;20495;-53
2023/09/20 01:02:22;;;;;;;3.60;2.77;;;15.80;99.90;;;;;;4992060;28;20862;-54
2023/09/20 01:04:49;;;;;;;6.03;2.33;;;15.80;99.90;;;;;;4986214;28;20954;-53
2023/09/20 01:07:15;;;;;;;4.40;2.07;;;15.80;99.90;;;;;;4992357;28;20548;-53
2023/09/20 01:09:42;;;;;;;3.00;1.63;;;15.80;99.90;;;;;;4985923;28;20473;-54
2023/09/20 01:12:09;;;;;;;12.30;2.83;;;15.80;99.90;;;;;;4991170;28;20461;-54
2023/09/20 01:14:37;;;;;;;8.30;2.30;;;15.80;99.90;;;;;;4994556;28;20471;-53
2023/09/20 01:17:07;;;;;;;6.70;3.30;;;15.80;99.90;;;;;;4983730;28;20543;-53
2023/09/20 01:19:34;;;;;;;6.83;2.63;;;15.80;99.90;;;;;;4989981;28;20490;-54
2023/09/20 01:22:02;;;;;;;6.07;2.30;;;15.70;99.90;;;;;;4988607;28;20457;-53
2023/09/20 01:24:33;;;;;;;6.60;2.70;;;15.80;99.90;;;;;;4988429;28;20560;-53
2023/09/20 01:27:03;;;;;;;5.60;2.27;;;15.80;99.90;;;;;;5003504;28;20452;-52
2023/09/20 01:29:30;;;;;;;3.90;2.40;;;15.80;99.90;;;;;;4986275;28;20856;-53
2023/09/20 01:32:02;;;;;;;4.40;2.43;;;15.80;99.90;;;;;;4994244;28;20499;-54
2023/09/20 01:34:29;;;;;;;3.70;2.20;;;15.80;99.90;;;;;;4992986;28;20839;-53
2023/09/20 01:36:56;;;;;;;7.97;2.50;;;15.80;99.90;;;;;;4998088;28;20470;-53
2023/09/20 01:39:25;;;;;;;11.83;2.50;;;15.80;99.90;;;;;;5000020;28;20984;-52
2023/09/20 01:41:51;;;;;;;6.10;2.20;;;15.80;99.90;;;;;;4991680;28;21011;-52
2023/09/20 01:44:18;;;;;;;4.87;2.33;;;15.80;99.90;;;;;;4991485;28;20531;-52
2023/09/20 01:46:45;;;;;;;3.93;2.00;;;15.80;99.90;;;;;;4996458;28;20533;-52
2023/09/20 01:49:12;;;;;;;3.90;2.30;;;15.80;99.90;;;;;;4993548;28;20477;-53
2023/09/20 01:51:39;;;;;;;6.40;2.87;;;15.80;99.90;;;;;;4991674;28;20496;-54
2023/09/20 01:54:06;;;;;;;3.63;2.43;;;15.80;99.90;;;;;;4993782;28;20962;-51
2023/09/20 01:56:34;;;;;;;4.93;2.40;;;15.90;99.90;;;;;;4996207;28;20460;-52
2023/09/20 01:59:00;;;;;;;4.20;2.33;;;15.80;99.90;;;;;;4994237;28;20539;-52
2023/09/20 02:01:27;;;;;;;3.40;2.00;;;15.90;99.90;;;;;;4993138;28;21009;-52
2023/09/20 02:03:55;;;;;;;5.37;2.43;;;15.90;99.90;;;;;;4994378;28;20461;-52
2023/09/20 02:06:22;;;;;;;10.83;2.77;;;15.90;99.90;;;;;;4990803;28;20463;-51
2023/09/20 02:08:48;;;;;;;6.60;2.50;;;15.90;99.90;;;;;;4994945;28;20953;-51
2023/09/20 02:11:15;;;;;;;8.10;2.93;;;15.80;99.90;;;;;;4993681;28;20990;-52
2023/09/20 02:13:43;;;;;;;8.40;2.57;;;15.80;99.90;;;;;;4993269;28;20531;-53
2023/09/20 02:16:10;;;;;;;5.60;2.50;;;15.90;99.90;;;;;;4993416;28;20460;-52
2023/09/20 02:18:38;;;;;;;4.47;2.40;;;15.80;99.90;;;;;;4994385;28;20970;-52
2023/09/20 02:21:06;;;;;;;4.00;1.93;;;15.90;99.90;;;;;;4994234;28;20908;-53
2023/09/20 02:23:33;;;;;;;3.97;2.50;;;15.90;99.90;;;;;;4991015;28;20464;-52
2023/09/20 02:26:00;;;;;;;4.20;2.30;;;15.90;99.90;;;;;;4980423;28;20543;-52
2023/09/20 02:28:27;;;;;;;4.40;2.73;;;15.90;99.90;;;;;;4992159;28;20453;-53
2023/09/20 02:30:55;;;;;;;5.17;2.67;;;15.90;99.90;;;;;;4989875;28;20962;-52
2023/09/20 02:33:22;;;;;;;7.43;2.50;;;16.00;99.90;;;;;;4993436;28;20488;-53
2023/09/20 02:35:49;;;;;;;5.03;2.60;;;15.90;99.90;;;;;;4993712;28;20452;-54
2023/09/20 02:38:15;;;;;;;9.37;2.37;;;16.00;99.90;;;;;;4994748;28;20573;-51
2023/09/20 02:40:45;;;;;;;5.27;2.40;;;16.00;99.90;;;;;;4990420;28;20578;-52
2023/09/20 02:43:13;;;;;;;3.63;1.90;;;16.00;99.90;;;;;;4989516;28;20453;-52
2023/09/20 02:45:40;;;;;;;3.23;2.23;;;16.00;99.90;;;;;;4992939;28;20461;-54
2023/09/20 02:48:09;;;;;;;6.70;2.40;;;16.10;99.90;;;;;;4993328;28;20951;-53
2023/09/20 02:50:36;;;;;;;14.70;2.37;;;16.10;99.90;;;;;;4993035;28;20468;-53
2023/09/20 02:53:03;;;;;;;5.30;2.53;;;16.10;99.90;;;;;;4990680;28;20465;-53
2023/09/20 02:55:32;;;;;;;2.27;2.03;;;16.10;99.90;;;;;;4993787;28;20503;-53
2023/09/20 02:57:58;;;;;;;6.40;2.93;;;16.10;99.90;;;;;;4989994;28;20475;-53
2023/09/20 03:00:27;;;;;;;2.90;1.83;;;16.10;99.90;;;;;;4992060;28;20500;-52
2023/09/20 03:02:56;;;;;;;4.67;2.10;;;16.10;99.90;;;;;;4993045;28;20515;-53
2023/09/20 03:05:26;;;;;;;5.97;2.80;;;16.10;99.90;;;;;;4987890;28;20472;-53
2023/09/20 03:07:54;;;;;;;6.17;2.90;;;16.10;99.90;;;;;;4988716;28;20539;-53
2023/09/20 03:10:22;;;;;;;5.90;2.27;;;16.10;99.90;;;;;;4991613;28;20477;-52
2023/09/20 03:12:51;;;;;;;5.40;2.17;;;16.10;99.90;;;;;;4991346;28;20459;-53
2023/09/20 03:15:21;;;;;;;4.27;2.50;;;16.10;99.90;;;;;;4996351;28;20484;-52
2023/09/20 03:17:50;;;;;;;5.70;1.90;;;16.10;99.90;;;;;;4990074;28;20498;-52
2023/09/20 03:20:22;;;;;;;9.00;2.97;;;16.00;99.90;;;;;;4993980;28;20519;-53
2023/09/20 03:22:52;;;;;;;9.30;2.80;;;16.10;99.90;;;;;;4994060;28;20457;-52
2023/09/20 03:25:19;;;;;;;3.50;2.53;;;16.10;99.90;;;;;;4993027;28;20449;-53
2023/09/20 03:27:48;;;;;;;7.43;1.90;;;16.10;99.90;;;;;;4984135;28;20453;-53
2023/09/20 03:30:16;;;;;;;4.83;1.80;;;16.10;99.90;;;;;;4986719;28;20504;-53
2023/09/20 03:32:44;;;;;;;5.77;2.33;;;16.10;99.90;;;;;;4984613;28;20536;-52
2023/09/20 03:35:12;;;;;;;6.20;2.30;;;16.00;99.90;;;;;;4991162;28;20510;-53
2023/09/20 03:37:40;;;;;;;4.47;2.13;;;16.00;99.90;;;;;;4983942;28;20888;-52
2023/09/20 03:40:10;;;;;;;4.47;2.00;;;16.00;99.90;;;;;;4990071;28;20488;-54
2023/09/20 03:42:38;;;;;;;5.13;2.13;;;15.90;99.90;;;;;;4983379;28;20507;-53
2023/09/20 03:45:06;;;;;;;3.97;2.60;;;16.00;99.90;;;;;;4987697;28;20461;-52
2023/09/20 03:47:33;;;;;;;12.63;2.30;;;16.00;99.90;;;;;;4987332;28;20460;-50
2023/09/20 03:49:59;;;;;;;3.17;1.60;;;15.90;99.90;;;;;;4989631;28;20469;-52
2023/09/20 03:52:26;;;;;;;8.73;2.27;;;15.90;99.90;;;;;;4991710;28;20461;-51
2023/09/20 03:54:53;;;;;;;3.07;1.87;;;15.90;99.90;;;;;;4992308;28;20546;-52
2023/09/20 03:57:24;;;;;;;11.73;2.47;;;15.90;99.90;;;;;;4992849;28;20447;-53
2023/09/20 03:59:52;;;;;;;5.30;2.30;;;15.80;99.90;;;;;;4989393;28;20491;-53
2023/09/20 04:02:19;;;;;;;4.70;1.90;;;15.80;99.90;;;;;;4991359;28;20851;-51
2023/09/20 04:04:45;;;;;;;10.93;1.93;;;15.80;99.90;;;;;;4990152;28;20465;-52
2023/09/20 04:07:12;;;;;;;5.10;2.17;;;15.70;99.90;;;;;;4990760;28;20464;-52
2023/09/20 04:09:39;;;;;;;3.50;2.07;;;15.70;99.90;;;;;;4991566;28;20468;-52
2023/09/20 04:12:06;;;;;;;6.27;2.40;;;15.70;99.90;;;;;;4990880;28;20465;-52
2023/09/20 04:14:34;;;;;;;3.90;2.70;;;15.70;99.90;;;;;;4990204;28;20461;-53
2023/09/20 04:17:00;;;;;;;3.80;2.00;;;15.70;99.90;;;;;;4989611;28;20468;-53
2023/09/20 04:19:28;;;;;;;3.37;2.30;;;15.70;99.90;;;;;;4987745;28;20512;-52
2023/09/20 04:21:56;;;;;;;8.10;2.13;;;15.60;98.20;;;;;;4988279;28;20493;-51
2023/09/20 04:24:23;;;;;;;8.00;2.20;;;15.60;94.90;;;;;;4996184;28;20529;-53
2023/09/20 04:26:50;;;;;;;4.80;2.17;;;15.60;91.70;;;;;;4988535;28;20473;-52
2023/09/20 04:29:17;;;;;;;7.00;2.60;;;15.60;89.10;;;;;;4992607;28;20548;-54
2023/09/20 04:31:45;;;;;;;7.30;2.33;;;15.50;85.80;;;;;;4988624;28;20535;-54
2023/09/20 04:34:13;;;;;;;4.10;2.20;;;15.50;83.70;;;;;;4989278;28;20464;-52
2023/09/20 04:36:39;;;;;;;6.87;2.43;;;15.50;83.50;;;;;;4988643;28;20943;-53
2023/09/20 04:39:06;;;;;;;7.03;2.50;;;15.50;82.60;;;;;;4982209;28;20468;-53
2023/09/20 04:41:34;;;;;;;3.63;2.40;;;15.50;80.90;;;;;;4986861;28;20838;-51
2023/09/20 04:44:02;;;;;;;3.97;2.50;;;15.50;78.20;;;;;;4992253;28;20464;-52
2023/09/20 04:46:29;;;;;;;5.43;1.70;;;15.40;76.50;;;;;;4993126;28;20506;-51
2023/09/20 04:48:57;;;;;;;4.37;2.30;;;15.40;73.80;;;;;;4994546;28;20492;-53
2023/09/20 04:51:24;;;;;;;6.03;2.00;;;15.30;72.80;;;;;;4989768;28;20818;-53
2023/09/20 04:53:51;;;;;;;6.30;2.27;;;15.30;70.00;;;;;;5010333;28;20493;-52
2023/09/20 04:56:18;;;;;;;5.30;2.83;;;15.30;67.40;;;;;;4997333;28;20460;-52
2023/09/20 04:58:44;;;;;;;4.80;2.20;;;15.40;66.80;;;;;;5005126;28;20861;-52
2023/09/20 05:01:13;;;;;;;2.43;2.10;;;15.30;64.30;;;;;;4994646;28;20516;-52
2023/09/20 05:03:40;;;;;;;4.83;2.37;;;15.30;61.40;;;;;;5004940;28;20958;-53
2023/09/20 05:06:09;;;;;;;3.83;2.10;;;15.30;57.70;;;;;;4999049;28;20467;-52
2023/09/20 05:08:36;;;;;;;4.27;2.00;;;15.20;53.80;;;;;;4996253;28;20495;-53
2023/09/20 05:11:04;;;;;;;3.30;1.53;;;15.30;51.90;;;;;;5001367;28;20475;-52
2023/09/20 05:13:30;;;;;;;4.23;1.57;;;15.20;49.60;;;;;;4992233;28;20471;-51
2023/09/20 05:15:57;;;;;;;2.93;2.20;;;15.20;45.80;;;;;;5002517;28;20495;-53
2023/09/20 05:18:22;;;;;;;3.90;1.63;;;15.30;40.90;;;;;;5001595;28;20463;-53
2023/09/20 05:20:49;;;;;;;2.27;2.07;;;15.30;39.30;;;;;;4988731;28;20515;-53
2023/09/20 05:23:17;;;;;;;5.63;2.07;;;15.40;40.80;;;;;;4993830;28;20632;-53
2023/09/20 05:25:44;;;;;;;4.50;1.83;;;15.40;40.70;;;;;;4994389;28;20511;-52
2023/09/20 05:28:11;;;;;;;9.10;2.57;;;15.40;40.90;;;;;;4992325;28;20554;-53
2023/09/20 05:30:38;;;;;;;3.13;2.03;;;15.40;39.30;;;;;;4998478;28;20486;-53
2023/09/20 05:33:05;;;;;;;2.20;1.90;;;15.40;38.30;;;;;;4995210;28;20445;-53
2023/09/20 05:35:31;;;;;;;4.77;1.90;;;15.40;37.70;;;;;;4996681;28;20471;-53
2023/09/20 05:37:59;;;;;;;5.17;1.80;;;15.40;37.20;;;;;;4994408;28;20464;-52
2023/09/20 05:40:29;;;;;;;10.20;1.53;;;15.40;34.40;;;;;;4995435;28;22183;-52
2023/09/20 05:42:55;;;;;;;5.60;2.13;;;15.50;34.20;;;;;;4991927;28;20466;-53
2023/09/20 05:45:23;;;;;;;7.93;2.27;;;15.50;33.80;;;;;;4993343;28;20460;-53
2023/09/20 05:47:50;;;;;;;7.53;2.10;;;15.60;34.60;;;;;;4995354;28;20839;-53
2023/09/20 05:50:17;;;;;;;5.73;2.50;;;15.70;34.60;;;;;;4993358;28;20481;-52
2023/09/20 05:52:44;;;;;;;4.40;1.67;;;15.70;34.30;;;;;;4984187;28;20464;-53
2023/09/20 05:55:13;;;;;;;4.43;2.37;;;15.80;35.70;;;;;;5006536;28;20476;-52
2023/09/20 05:57:42;;;;;;;6.10;2.10;;;15.80;37.10;;;;;;5000970;28;20511;-53
2023/09/20 06:00:16;;;;;;;3.33;1.77;;;15.90;35.40;;;;;;5000501;28;20908;-53
2023/09/20 06:02:42;;;;;;;6.37;1.80;;;15.90;36.80;;;;;;4992489;28;20484;-53
2023/09/20 06:05:11;;;;;;;6.10;2.20;;;16.00;37.80;;;;;;5002807;28;20444;-53
2023/09/20 06:07:37;;;;;;;4.03;1.83;;;16.00;38.40;;;;;;4999229;28;20444;-52
2023/09/20 06:10:05;;;;;;;2.83;2.10;;;16.10;40.80;;;;;;5001930;28;20546;-52
2023/09/20 06:12:32;;;;;;;5.23;2.20;;;16.10;39.10;;;;;;4999719;28;20460;-52
2023/09/20 06:15:00;;;;;;;4.07;2.17;;;16.20;40.60;;;;;;4998852;28;20451;-52
2023/09/20 06:17:29;;;;;;;3.50;2.47;;;16.30;41.80;;;;;;4994619;28;20444;-52
2023/09/20 06:19:56;;;;;;;2.23;1.87;;;16.30;42.90;;;;;;4995897;28;20468;-52
2023/09/20 06:22:23;;;;;;;2.50;1.73;;;16.40;45.60;;;;;;5000551;28;20493;-53
2023/09/20 06:24:50;;;;;;;3.60;1.93;;;16.40;42.70;;;;;;5003965;28;20876;-53
2023/09/20 06:27:16;;;;;;;3.73;2.00;;;16.50;47.10;;;;;;5000996;28;20461;-53
2023/09/20 06:29:43;;;;;;;6.20;2.30;;;16.50;47.40;;;;;;5010004;28;20466;-51
2023/09/20 06:32:12;;;;;;;2.60;2.03;;;16.60;46.40;;;;;;4992254;28;20488;-53
2023/09/20 06:34:39;;;;;;;2.73;2.20;;;16.70;42.80;;;;;;4993121;28;20511;-53
2023/09/20 06:37:05;;;;;;;11.23;2.27;;;16.70;49.60;;;;;;5010346;28;20514;-53
2023/09/20 06:39:32;;;;;;;9.53;2.10;;;16.70;52.10;;;;;;5002165;28;20472;-53
2023/09/20 06:41:59;;;;;;;3.10;1.87;;;16.80;52.50;;;;;;5001297;28;20487;-53
2023/09/20 06:44:25;;;;;;;22.33;2.20;;;16.90;53.10;;;;;;5001228;28;20499;-55
2023/09/20 06:46:52;;;;;;;6.63;2.20;;;17.00;54.00;;;;;;5002783;28;20473;-52
2023/09/20 06:49:20;;;;;;;3.07;1.90;;;17.10;53.60;;;;;;5001026;28;20484;-53
2023/09/20 06:51:47;;;;;;;6.67;1.80;;;17.10;54.40;;;;;;4996022;28;20459;-51
2023/09/20 06:54:14;;;;;;;9.90;1.80;;;17.20;56.70;;;;;;5001146;28;20467;-52
2023/09/20 06:56:41;;;;;;;3.17;2.30;;;17.30;59.10;;;;;;5002061;28;20440;-52
2023/09/20 06:59:07;;;;;;;8.10;2.07;;;17.40;59.70;;;;;;5003777;28;20479;-52
2023/09/20 07:01:34;;;;;;;6.30;2.27;;;17.50;67.80;;;;;;4997725;28;20570;-54
2023/09/20 07:04:00;;;;;;;7.33;2.30;;;17.60;66.20;;;;;;4993853;28;20467;-52
2023/09/20 07:06:31;;;;;;;3.50;1.63;;;17.70;68.00;;;;;;4996279;28;20468;-53
2023/09/20 07:08:58;;;;;;;6.13;2.73;;;17.80;72.50;;;;;;4990558;28;20519;-52
2023/09/20 07:11:26;;;;;;;6.47;1.83;;;17.90;71.70;;;;;;4991873;28;20463;-52
2023/09/20 07:13:53;;;;;;;2.90;2.10;;;18.00;73.80;;;;;;4987052;28;20554;-51
2023/09/20 07:16:20;;;;;;;2.43;1.83;;;18.00;77.10;;;;;;4992570;28;20455;-51
2023/09/20 07:18:48;;;;;;;6.80;1.93;;;18.10;79.90;;;;;;4992924;28;20448;-52
2023/09/20 07:21:15;;;;;;;7.70;1.67;;;18.10;82.90;;;;;;5001977;28;20587;-52
2023/09/20 07:23:43;;;;;;;6.70;2.90;;;18.20;79.30;;;;;;5007395;28;20448;-51
2023/09/20 07:26:12;;;;;;;3.00;1.77;;;18.20;84.70;;;;;;4996147;28;20460;-52
2023/09/20 07:28:42;;;;;;;6.40;2.37;;;18.10;82.70;;;;;;4993223;28;20510;-52
2023/09/20 07:31:09;;;;;;;4.67;2.00;;;18.10;81.30;;;;;;5000596;28;20461;-52
2023/09/20 07:33:38;;;;;;;2.40;2.10;;;18.00;81.20;;;;;;4985279;28;21022;-52
2023/09/20 07:36:05;;;;;;;3.20;1.93;;;18.00;78.90;;;;;;4980987;28;20880;-52
2023/09/20 07:38:35;;;;;;;11.97;1.83;;;18.00;77.50;;;;;;4992630;28;20459;-52
2023/09/20 07:41:12;;;;;;;7.93;1.83;;;18.00;75.70;;;;;;4988080;28;20465;-52
2023/09/20 07:43:39;;;;;;;4.30;2.47;;;18.00;72.90;;;;;;4987743;28;20808;-53
2023/09/20 07:46:07;;;;;;;11.93;2.13;;;18.00;77.40;;;;;;4988442;28;20480;-52
2023/09/20 07:48:33;;;;;;;6.20;2.00;;;18.10;77.10;;;;;;4989831;28;22667;-52
2023/09/20 07:51:01;;;;;;;6.83;2.40;;;18.20;75.60;;;;;;4991024;28;20501;-52
2023/09/20 07:53:28;;;;;;;2.90;1.73;;;18.30;76.60;;;;;;4984799;28;20451;-52
2023/09/20 07:56:00;;;;;;;7.77;2.20;;;18.50;80.30;;;;;;4990673;28;22014;-53
2023/09/20 07:58:28;;;;;;;5.27;1.80;;;18.60;88.00;;;;;;4987349;28;20466;-51
2023/09/20 08:00:56;;;;;;;7.10;2.50;;;18.70;89.20;;;;;;4986439;28;20520;-52
2023/09/20 08:03:23;;;;;;;5.90;2.20;;;18.80;88.40;;;;;;4986397;28;20492;-52
2023/09/20 08:05:50;;;;;;;6.80;2.23;;;18.90;93.50;;;;;;4975951;28;20453;-54
2023/09/20 08:08:17;;;;;;;6.57;2.80;;;18.90;91.80;;;;;;4983973;28;20496;-53
2023/09/20 08:10:44;;;;;;;5.63;2.30;;;19.00;96.50;;;;;;4992284;28;20484;-51
2023/09/20 08:13:11;;;;;;;9.30;2.70;;;19.10;94.40;;;;;;4981856;28;20972;-53
2023/09/20 08:15:42;;;;;;;10.53;2.40;;;19.20;95.60;;;;;;4982063;28;20500;-51
2023/09/20 08:20:53;;;;;;;3.83;2.37;;;19.30;96.70;;;;;;4991712;28;20496;-53
2023/09/20 09:01:47;;;;;;;10.70;2.17;;;19.20;99.90;;;;;;4984199;28;20492;-53
2023/09/20 09:04:18;;;;;;;6.27;2.20;;;19.20;97.40;;;;;;4984152;28;20503;-52
2023/09/20 09:06:45;;;;;;;7.03;1.83;;;19.10;97.40;;;;;;4992261;28;20464;-51
2023/09/20 09:09:11;;;;;;;8.77;2.10;;;19.20;94.10;;;;;;4990528;28;20476;-52
2023/09/20 09:11:38;;;;;;;5.10;1.90;;;19.20;96.10;;;;;;4983129;28;20453;-53
2023/09/20 09:14:05;;;;;;;8.67;2.57;;;19.20;95.50;;;;;;4988578;28;20519;-52
2023/09/20 09:16:33;;;;;;;6.03;2.23;;;19.10;98.30;;;;;;4972709;28;20456;-53
2023/09/20 09:19:00;;;;;;;13.63;2.50;;;19.30;98.00;;;;;;4989767;28;20479;-52
2023/09/20 09:21:29;;;;;;;11.53;2.70;;;19.30;97.50;;;;;;4990186;28;20484;-52
2023/09/20 09:23:56;;;;;;;6.03;2.00;;;19.30;97.80;;;;;;4980980;28;20449;-52
2023/09/20 09:26:23;;;;;;;4.33;2.07;;;19.30;96.50;;;;;;4980602;28;20454;-52
2023/09/20 09:28:50;;;;;;;9.10;2.10;;;19.40;99.90;;;;;;4980107;28;20476;-52
2023/09/20 09:31:17;;;;;;;6.80;2.40;;;19.60;99.90;;;;;;4972646;28;20442;-52
2023/09/20 09:33:44;;;;;;;4.53;1.83;;;19.80;99.90;;;;;;4988216;28;20776;-53
2023/09/20 09:36:12;;;;;;;5.33;2.37;;;20.00;99.90;;;;;;4994088;28;21053;-53
2023/09/20 09:38:41;;;;;;;3.13;2.23;;;20.20;99.90;;;;;;4990800;28;20460;-53
2023/09/20 09:41:08;;;;;;;5.87;2.10;;;20.60;99.90;;;;;;4993785;28;20810;-52
2023/09/20 09:43:36;;;;;;;8.33;2.70;;;20.70;99.90;;;;;;4988712;28;20484;-53
2023/09/20 09:46:07;;;;;;;4.77;2.10;;;20.70;99.90;;;;;;4987817;28;20464;-52
2023/09/20 09:48:34;;;;;;;5.80;2.43;;;20.80;99.90;;;;;;4994792;28;20459;-52
2023/09/20 09:51:01;;;;;;;5.50;2.53;;;21.00;99.90;;;;;;4991284;28;20504;-54
2023/09/20 09:53:30;;;;;;;13.63;2.40;;;21.00;99.90;;;;;;4987567;28;20464;-51
2023/09/20 09:55:59;;;;;;;4.23;2.10;;;20.90;99.90;;;;;;4988074;28;20507;-51
2023/09/20 09:58:26;;;;;;;5.53;2.23;;;21.10;99.90;;;;;;4994047;28;20460;-52
2023/09/20 10:00:54;;;;;;;5.20;2.37;;;21.30;99.90;;;;;;4997055;28;20491;-52
2023/09/20 10:03:29;;;;;;;10.33;2.20;;;21.60;99.90;;;;;;4992193;28;20487;-55
2023/09/20 10:06:03;;;;;;;13.20;2.13;;;21.40;99.90;;;;;;4986914;28;20464;-53
2023/09/20 10:08:32;;;;;;;18.67;2.27;;;21.30;99.90;;;;;;4986597;28;20547;-53
2023/09/20 10:11:05;;;;;;;5.80;1.90;;;21.90;99.90;;;;;;4984868;28;20465;-52
2023/09/20 10:13:33;;;;;;;6.50;2.67;;;22.50;99.90;;;;;;4988954;28;20465;-52
2023/09/20 10:16:02;;;;;;;3.63;2.10;;;23.10;99.90;;;;;;4987937;28;20465;-53
2023/09/20 10:18:32;;;;;;;3.30;2.47;;;22.70;99.90;;;;;;4982859;28;20492;-54
2023/09/20 10:21:04;;;;;;;7.70;2.20;;;23.10;99.90;;;;;;4986948;28;20936;-53
2023/09/20 10:23:34;;;;;;;6.37;2.17;;;22.80;99.90;;;;;;4990828;28;20535;-52
2023/09/20 10:26:02;;;;;;;8.13;2.03;;;23.00;99.90;;;;;;4990143;28;20468;-51
2023/09/20 10:28:37;;;;;;;8.73;2.43;;;22.70;99.90;;;;;;4991488;28;20469;-53
2023/09/20 10:31:06;;;;;;;11.23;2.93;;;22.80;99.90;;;;;;4986763;28;20463;-52
2023/09/20 10:33:45;;;;;;;2.97;1.70;;;22.90;99.90;;;;;;4992271;28;20449;-52
2023/09/20 10:36:14;;;;;;;4.40;1.90;;;22.60;99.90;;;;;;5000989;28;20969;-52
2023/09/20 10:38:44;;;;;;;10.90;2.90;;;22.80;99.90;;;;;;4992458;28;20467;-52
2023/09/20 10:41:12;;;;;;;9.10;2.20;;;23.30;99.90;;;;;;4994374;28;20484;-51
2023/09/20 10:43:49;;;;;;;6.90;2.07;;;23.50;99.90;;;;;;4993543;28;20495;-53
2023/09/20 10:46:18;;;;;;;20.13;2.70;;;23.70;99.90;;;;;;4990939;28;21030;-52
2023/09/20 10:48:50;;;;;;;4.07;2.00;;;23.70;99.90;;;;;;4990861;28;20472;-53
2023/09/20 10:51:48;;;;;;;8.70;3.20;;;22.70;99.90;;;;;;4981657;28;20495;-52
2023/09/20 10:54:23;;;;;;;8.53;2.67;;;22.30;99.90;;;;;;4990566;28;20456;-53
2023/09/20 10:57:07;;;;;;;3.27;2.07;;;22.20;99.90;;;;;;4992594;28;20996;-53
2023/09/20 10:59:36;;;;;;;9.33;2.03;;;22.00;99.90;;;;;;4993077;28;20475;-52
2023/09/20 11:02:09;;;;;;;10.70;3.07;;;22.00;99.90;;;;;;5002347;28;20504;-52
2023/09/20 11:04:41;;;;;;;7.67;2.47;;;22.00;99.90;;;;;;5002877;28;20471;-53
2023/09/20 11:07:09;;;;;;;5.97;2.13;;;22.10;99.90;;;;;;4995759;28;20464;-53
2023/09/20 11:09:38;;;;;;;8.73;2.90;;;22.30;99.90;;;;;;4991652;28;20484;-51
2023/09/20 11:12:11;;;;;;;9.00;3.23;;;22.30;99.90;;;;;;4992756;28;20460;-52
2023/09/20 11:14:40;;;;;;;7.73;1.97;;;22.40;99.90;;;;;;4991110;28;20471;-51
2023/09/20 11:17:07;;;;;;;8.83;2.43;;;22.20;99.90;;;;;;4988858;28;20495;-51
2023/09/20 11:19:35;;;;;;;4.50;2.37;;;22.40;99.90;;;;;;4991220;28;20535;-52
2023/09/20 11:22:02;;;;;;;16.47;2.57;;;22.30;99.90;;;;;;4984583;28;20465;-54
2023/09/20 11:24:29;;;;;;;3.97;2.10;;;22.30;99.90;;;;;;5001611;28;20441;-51
2023/09/20 11:26:56;;;;;;;11.30;2.40;;;22.30;99.90;;;;;;4985200;28;20445;-52
2023/09/20 11:29:25;;;;;;;4.37;1.80;;;22.30;99.90;;;;;;4989775;28;21009;-53
2023/09/20 11:31:55;;;;;;;6.00;1.90;;;22.20;99.90;;;;;;4991464;28;20498;-53
2023/09/20 11:34:22;;;;;;;16.63;2.10;;;22.30;99.90;;;;;;4981787;28;20516;-52
2023/09/20 11:36:53;;;;;;;10.83;2.30;;;22.30;99.90;;;;;;4980747;28;20495;-52
2023/09/20 11:39:26;;;;;;;6.03;1.60;;;22.40;99.90;;;;;;4989295;28;20531;-51
2023/09/20 11:41:52;;;;;;;3.40;2.27;;;22.30;99.90;;;;;;4989939;28;20475;-52
2023/09/20 11:44:20;;;;;;;6.97;2.63;;;22.40;99.90;;;;;;4991180;28;20481;-53
2023/09/20 11:46:54;;;;;;;2.80;1.80;;;22.50;99.90;;;;;;4987852;28;20950;-52
2023/09/20 11:49:21;;;;;;;7.10;2.27;;;22.60;99.90;;;;;;4985162;28;21038;-51
2023/09/20 11:51:50;;;;;;;7.27;2.40;;;22.60;99.90;;;;;;4988098;28;20469;-51
2023/09/20 11:54:17;;;;;;;6.03;1.90;;;22.60;99.90;;;;;;4983521;28;20472;-52
2023/09/20 11:56:48;;;;;;;7.70;2.20;;;22.70;99.90;;;;;;4977876;28;20445;-54
2023/09/20 11:59:18;;;;;;;3.03;1.60;;;22.80;99.90;;;;;;4992160;28;20567;-53
2023/09/20 12:01:46;;;;;;;2.53;2.10;;;22.90;99.90;;;;;;5004758;28;20448;-51
2023/09/20 12:04:14;;;;;;;4.10;1.97;;;22.80;99.90;;;;;;4992567;28;20495;-53
2023/09/20 12:06:41;;;;;;;2.20;2.00;;;23.00;99.90;;;;;;4989595;28;20499;-51
2023/09/20 12:09:09;;;;;;;5.20;1.97;;;23.00;99.90;;;;;;4990013;28;20534;-53
2023/09/20 12:11:36;;;;;;;5.17;1.77;;;22.90;99.90;;;;;;4986589;28;20483;-53
2023/09/20 12:14:03;;;;;;;5.30;1.70;;;23.10;99.90;;;;;;4978559;28;20729;-52
2023/09/20 12:16:29;;;;;;;2.90;1.60;;;23.20;99.90;;;;;;4989535;28;20863;-53
2023/09/20 12:18:58;;;;;;;5.10;1.80;;;23.40;99.90;;;;;;4992062;28;20511;-53
2023/09/20 12:21:26;;;;;;;11.23;2.27;;;23.50;99.90;;;;;;4983484;28;20499;-53
2023/09/20 12:23:53;;;;;;;3.17;1.93;;;24.10;99.90;;;;;;4990569;28;20488;-52
2023/09/20 12:26:20;;;;;;;6.10;2.20;;;24.70;99.90;;;;;;4982699;28;20519;-52
2023/09/20 12:28:46;;;;;;;8.50;2.27;;;24.50;99.90;;;;;;4990875;28;20896;-52
2023/09/20 12:31:14;;;;;;;2.47;1.40;;;24.40;99.90;;;;;;4991509;28;20440;-52
2023/09/20 12:33:41;;;;;;;5.77;2.00;;;24.30;99.90;;;;;;4993300;28;20961;-51
2023/09/20 12:36:11;;;;;;;2.70;1.80;;;24.10;99.90;;;;;;4999461;28;21027;-54
2023/09/20 12:38:39;;;;;;;5.80;1.90;;;24.10;99.90;;;;;;4993024;28;20444;-53
2023/09/20 12:41:08;;;;;;;5.40;1.97;;;24.10;99.90;;;;;;5000490;28;20484;-51
2023/09/20 12:43:35;;;;;;;6.20;2.00;;;24.40;99.90;;;;;;4998274;28;20488;-53
2023/09/20 12:46:01;;;;;;;3.30;1.60;;;24.90;99.90;;;;;;4997934;28;20460;-53
2023/09/20 12:48:28;;;;;;;1.80;1.50;;;24.80;99.90;;;;;;4990480;28;20892;-52
2023/09/20 12:50:55;;;;;;;7.03;2.17;;;24.90;99.90;;;;;;4983901;28;20465;-52
2023/09/20 12:53:21;;;;;;;4.77;2.40;;;25.10;99.90;;;;;;4980082;28;20456;-52
2023/09/20 12:55:50;;;;;;;7.00;1.60;;;24.90;99.90;;;;;;4992307;28;20549;-52
2023/09/20 12:58:16;;;;;;;4.23;1.50;;;24.70;99.90;;;;;;4990868;28;20470;-52
2023/09/20 13:00:44;;;;;;;3.33;1.60;;;24.60;99.90;;;;;;4992067;28;20487;-51
2023/09/20 13:03:11;;;;;;;3.77;2.03;;;24.50;1.40;;;;;;4988189;28;20906;-52
2023/09/20 13:05:38;;;;;;;9.10;1.67;;;24.60;99.90;;;;;;5005441;28;20458;-52
2023/09/20 13:08:06;;;;;;;8.60;2.00;;;25.10;99.90;;;;;;4985375;28;20475;-53
2023/09/20 13:10:33;;;;;;;9.20;1.70;;;25.30;99.90;;;;;;4993615;28;21076;-52
2023/09/20 13:13:03;;;;;;;2.50;1.60;;;25.80;99.90;;;;;;4999945;28;20482;-53
2023/09/20 13:15:30;;;;;;;3.43;1.70;;;25.90;99.90;;;;;;4991655;28;20467;-53
2023/09/20 13:17:56;;;;;;;5.40;1.67;;;26.50;99.90;;;;;;4990491;28;20484;-53
2023/09/20 13:20:24;;;;;;;6.17;1.97;;;26.50;99.90;;;;;;4997225;28;20495;-52
2023/09/20 13:22:53;;;;;;;3.67;1.70;;;26.30;99.90;;;;;;4995654;28;20925;-51
2023/09/20 13:25:20;;;;;;;10.53;1.60;;;25.70;99.90;;;;;;4996790;28;20466;-52
2023/09/20 13:27:48;;;;;;;5.70;1.50;;;25.50;99.90;;;;;;5004842;28;20463;-52
2023/09/20 13:30:17;;;;;;;3.07;1.40;;;25.10;99.90;;;;;;4992768;28;21060;-53